高雄終端管制區 - 高雄雷達席

METAR RCKH 042000Z 08003KT 9999 FEW010 SCT030 BKN150 26/25 Q1006 NOSIG RMK A2972=

站台狀態:Offline
最後更新:2022-07-05 04:30:01